Time;durP1;ratioP1;P1;durP2;ratioP2;P2;SDS_P1;SDS_P2;PMS_P1;PMS_P2;Temp;Humidity;BMP_temperature;BMP_pressure;BME280_temperature;BME280_humidity;BME280_pressure;Samples;Min_cycle;Max_cycle;Signal;HPM_P1;HPM_P2
2022/10/10 00:00:07;;;;;;;0.62;0.62;;;9.10;99.90;;;;;;4415080;32;20093;-77
2022/10/10 00:02:32;;;;;;;2.28;1.55;;;9.10;99.90;;;;;;4414489;32;20543;-76
2022/10/10 00:04:58;;;;;;;0.35;0.35;;;9.00;99.90;;;;;;4400574;32;20360;-77
2022/10/10 00:07:23;;;;;;;0.35;0.35;;;9.10;99.90;;;;;;4410455;32;20069;-77
2022/10/10 00:09:48;;;;;;;0.47;0.43;;;9.00;99.90;;;;;;4418177;32;20414;-77
2022/10/10 00:12:14;;;;;;;42.30;2.33;;;9.10;99.90;;;;;;4417404;32;20140;-77
2022/10/10 00:14:41;;;;;;;0.45;0.37;;;9.00;99.90;;;;;;4417781;32;20062;-77
2022/10/10 00:17:06;;;;;;;0.57;0.57;;;9.00;99.90;;;;;;4415799;32;20069;-77
2022/10/10 00:19:32;;;;;;;0.50;0.50;;;9.00;99.90;;;;;;4415166;32;20439;-77
2022/10/10 00:21:57;;;;;;;2.00;0.98;;;8.90;99.90;;;;;;4416667;32;20117;-77
2022/10/10 00:24:22;;;;;;;0.50;0.50;;;8.90;99.90;;;;;;4417212;32;20074;-77
2022/10/10 00:26:48;;;;;;;0.32;0.32;;;8.80;99.90;;;;;;4418555;32;20104;-77
2022/10/10 00:29:13;;;;;;;0.43;0.43;;;8.90;99.90;;;;;;4419631;32;20191;-77
2022/10/10 00:31:39;;;;;;;0.50;0.50;;;8.80;99.90;;;;;;4417346;32;20558;-77
2022/10/10 00:34:04;;;;;;;0.47;0.47;;;8.80;99.90;;;;;;4401336;32;20239;-76
2022/10/10 00:36:30;;;;;;;0.40;0.40;;;8.70;99.90;;;;;;4403590;32;20073;-77
2022/10/10 00:38:55;;;;;;;0.40;0.40;;;8.80;99.90;;;;;;4416069;32;20058;-77
2022/10/10 00:41:21;;;;;;;0.62;0.50;;;8.90;99.90;;;;;;4415953;32;20603;-76
2022/10/10 00:44:08;;;;;;;2.75;0.70;;;8.90;99.90;;;;;;4417557;32;20132;-77
2022/10/10 00:46:33;;;;;;;0.32;0.32;;;8.80;99.90;;;;;;4404958;32;20092;-75
2022/10/10 00:48:59;;;;;;;0.40;0.40;;;8.80;99.90;;;;;;4414571;32;20073;-77
2022/10/10 00:51:25;;;;;;;0.40;0.40;;;8.80;99.90;;;;;;4418004;32;20455;-76
2022/10/10 00:53:55;;;;;;;0.45;0.45;;;8.70;99.90;;;;;;4417213;32;20086;-76
2022/10/10 00:56:26;;;;;;;1.17;0.70;;;8.80;99.90;;;;;;4416009;32;20078;-76
2022/10/10 00:58:55;;;;;;;0.30;0.30;;;8.70;99.90;;;;;;4418650;32;20175;-76
2022/10/10 01:01:21;;;;;;;0.30;0.30;;;8.80;99.90;;;;;;4415811;32;20062;-76
2022/10/10 01:03:47;;;;;;;1.25;1.15;;;8.80;99.90;;;;;;4406580;32;20735;-75
2022/10/10 01:06:12;;;;;;;0.40;0.40;;;8.70;99.90;;;;;;4400768;32;20435;-76
2022/10/10 01:08:39;;;;;;;0.52;0.45;;;8.70;99.90;;;;;;4413037;32;20155;-76
2022/10/10 01:11:26;;;;;;;0.45;0.45;;;8.70;99.90;;;;;;4417523;32;20086;-76
2022/10/10 01:14:09;;;;;;;0.62;0.62;;;8.70;99.90;;;;;;4413871;32;20073;-76
2022/10/10 01:16:48;;;;;;;0.30;0.30;;;8.60;99.90;;;;;;4414461;32;20135;-76
2022/10/10 01:19:24;;;;;;;5.47;0.70;;;8.60;99.90;;;;;;4416048;32;20073;-76
2022/10/10 01:22:13;;;;;;;0.50;0.50;;;8.60;99.90;;;;;;4414495;32;20098;-76
2022/10/10 01:25:09;;;;;;;0.50;0.50;;;8.60;99.90;;;;;;4403357;32;20718;-76
2022/10/10 01:27:44;;;;;;;0.30;0.30;;;8.60;99.90;;;;;;4406553;32;20074;-76
2022/10/10 01:30:13;;;;;;;32.22;1.30;;;8.60;99.90;;;;;;4414104;32;20868;-76
2022/10/10 01:32:48;;;;;;;0.40;0.40;;;8.50;99.90;;;;;;4411410;32;20493;-75
2022/10/10 01:35:30;;;;;;;0.52;0.52;;;8.50;99.90;;;;;;4394627;32;20474;-76
2022/10/10 01:38:22;;;;;;;6.43;0.90;;;8.50;99.90;;;;;;4402721;32;20132;-77
2022/10/10 01:41:04;;;;;;;0.73;0.47;;;8.60;99.90;;;;;;4406392;32;20127;-76
2022/10/10 01:43:30;;;;;;;0.40;0.40;;;8.60;99.90;;;;;;4415769;32;20145;-77
2022/10/10 01:45:55;;;;;;;0.52;0.52;;;8.60;99.90;;;;;;4416573;32;20177;-77
2022/10/10 01:48:27;;;;;;;0.40;0.40;;;8.50;99.90;;;;;;4414626;32;20061;-77
2022/10/10 01:51:14;;;;;;;0.30;0.30;;;8.50;99.90;;;;;;4413356;32;20102;-77
2022/10/10 01:53:47;;;;;;;1.48;1.37;;;8.50;99.90;;;;;;4407244;32;20061;-77
2022/10/10 01:56:24;;;;;;;4.37;0.77;;;8.50;99.90;;;;;;4417248;32;20089;-77
2022/10/10 01:59:02;;;;;;;0.68;0.68;;;8.50;99.90;;;;;;4414326;32;20074;-77
2022/10/10 02:01:52;;;;;;;0.40;0.40;;;8.50;99.90;;;;;;4416334;32;20438;-77
2022/10/10 02:04:28;;;;;;;6.03;2.33;;;8.40;99.90;;;;;;4392713;32;20522;-76
2022/10/10 02:07:01;;;;;;;2.47;0.90;;;8.40;99.90;;;;;;4404698;32;20650;-77
2022/10/10 02:09:33;;;;;;;0.60;0.60;;;8.30;99.90;;;;;;4414766;32;20431;-76
2022/10/10 02:12:00;;;;;;;4.32;0.75;;;8.40;99.90;;;;;;4417084;32;20159;-77
2022/10/10 02:14:32;;;;;;;0.35;0.35;;;8.40;99.90;;;;;;4414101;32;20131;-76
2022/10/10 02:17:00;;;;;;;0.35;0.35;;;8.30;99.90;;;;;;4418248;32;20144;-77
2022/10/10 02:19:27;;;;;;;0.60;0.60;;;8.40;99.90;;;;;;4418187;32;20089;-77
2022/10/10 02:21:54;;;;;;;0.55;0.55;;;8.30;99.90;;;;;;4418411;32;20233;-76
2022/10/10 02:24:22;;;;;;;1.10;0.82;;;8.30;99.90;;;;;;4419933;32;20089;-76
2022/10/10 02:26:57;;;;;;;0.68;0.68;;;8.20;99.90;;;;;;4417867;32;20176;-76
2022/10/10 02:29:27;;;;;;;0.73;0.52;;;8.20;99.90;;;;;;4416650;32;20065;-76
2022/10/10 02:32:14;;;;;;;0.40;0.40;;;8.20;99.90;;;;;;4415483;32;20074;-74
2022/10/10 02:34:46;;;;;;;0.40;0.40;;;8.10;99.90;;;;;;4401022;32;20101;-76
2022/10/10 02:37:14;;;;;;;0.50;0.50;;;8.20;99.90;;;;;;4409160;32;20098;-76
2022/10/10 02:39:43;;;;;;;0.65;0.65;;;8.20;99.90;;;;;;4420170;32;22206;-74
2022/10/10 02:42:13;;;;;;;0.50;0.50;;;8.20;99.90;;;;;;4420050;32;20081;-77
2022/10/10 02:44:39;;;;;;;0.30;0.30;;;8.20;99.90;;;;;;4415196;32;20077;-74
2022/10/10 02:47:05;;;;;;;0.47;0.47;;;8.20;99.90;;;;;;4417978;32;20069;-77
2022/10/10 02:49:33;;;;;;;0.50;0.50;;;8.10;99.90;;;;;;4415623;32;20125;-77
2022/10/10 02:51:59;;;;;;;0.40;0.40;;;8.10;99.90;;;;;;4416465;32;20754;-76
2022/10/10 02:54:25;;;;;;;2.03;1.37;;;8.00;99.90;;;;;;4418228;32;20065;-76
2022/10/10 02:56:51;;;;;;;0.30;0.30;;;8.00;99.90;;;;;;4417408;32;20120;-77
2022/10/10 02:59:16;;;;;;;0.50;0.50;;;8.10;99.90;;;;;;4417418;32;20105;-76
2022/10/10 03:01:42;;;;;;;0.45;0.45;;;8.10;99.90;;;;;;4420171;32;20082;-77
2022/10/10 03:04:09;;;;;;;0.80;0.80;;;8.00;99.90;;;;;;4404964;32;20164;-76
2022/10/10 03:06:34;;;;;;;0.40;0.40;;;8.10;99.90;;;;;;4406886;32;20101;-77
2022/10/10 03:09:00;;;;;;;0.50;0.50;;;8.00;99.90;;;;;;4417715;32;20070;-76
2022/10/10 03:11:25;;;;;;;1.55;0.88;;;8.00;99.90;;;;;;4417914;32;20247;-76
2022/10/10 03:13:51;;;;;;;0.90;0.77;;;8.00;99.90;;;;;;4417504;32;20497;-76
2022/10/10 03:16:16;;;;;;;1.27;0.73;;;7.90;99.90;;;;;;4418882;32;20077;-74
2022/10/10 03:18:42;;;;;;;0.50;0.50;;;8.00;99.90;;;;;;4417715;32;20120;-76
2022/10/10 03:21:07;;;;;;;12.98;2.22;;;8.00;99.90;;;;;;4417923;32;20086;-77
2022/10/10 03:23:34;;;;;;;8.15;0.68;;;8.00;99.90;;;;;;4418761;32;20505;-77
2022/10/10 03:26:00;;;;;;;1.45;1.10;;;7.80;99.90;;;;;;4417208;32;20081;-79
2022/10/10 03:28:25;;;;;;;0.40;0.40;;;7.80;99.90;;;;;;4414649;32;20069;-76
2022/10/10 03:30:51;;;;;;;0.30;0.30;;;7.70;99.90;;;;;;4418090;32;20070;-77
2022/10/10 03:33:16;;;;;;;0.40;0.40;;;7.70;99.90;;;;;;4411014;32;20140;-76
2022/10/10 03:35:42;;;;;;;1.08;0.70;;;7.70;99.90;;;;;;4400919;32;20073;-76
2022/10/10 03:38:07;;;;;;;0.40;0.40;;;7.70;99.90;;;;;;4420872;32;20061;-78
2022/10/10 03:40:33;;;;;;;0.65;0.65;;;7.60;99.90;;;;;;4420650;32;20101;-77
2022/10/10 03:42:59;;;;;;;0.60;0.60;;;7.70;99.90;;;;;;4418780;32;20140;-76
2022/10/10 03:45:24;;;;;;;0.40;0.40;;;7.70;99.90;;;;;;4418837;32;20109;-77
2022/10/10 03:47:50;;;;;;;6.60;1.48;;;7.70;99.90;;;;;;4415797;32;20461;-76
2022/10/10 03:50:16;;;;;;;0.50;0.50;;;7.60;99.90;;;;;;4415826;32;20664;-76
2022/10/10 03:52:41;;;;;;;0.30;0.30;;;7.60;99.90;;;;;;4418526;32;20093;-76
2022/10/10 03:55:07;;;;;;;0.30;0.30;;;7.70;99.90;;;;;;4419716;32;20103;-76
2022/10/10 03:57:33;;;;;;;0.45;0.45;;;7.60;99.90;;;;;;4420591;32;20411;-77
2022/10/10 03:59:59;;;;;;;0.50;0.50;;;7.60;99.90;;;;;;4419327;32;20093;-78
2022/10/10 04:02:25;;;;;;;0.40;0.40;;;7.70;99.90;;;;;;4418398;32;20518;-76
2022/10/10 04:04:50;;;;;;;0.62;0.62;;;7.60;99.90;;;;;;4395622;32;20085;-76
2022/10/10 04:07:16;;;;;;;0.70;0.70;;;7.60;99.90;;;;;;4409396;32;20087;-76
2022/10/10 04:09:41;;;;;;;0.32;0.32;;;7.60;99.90;;;;;;4416284;32;20464;-76
2022/10/10 04:12:07;;;;;;;0.32;0.32;;;7.60;99.90;;;;;;4417096;32;20101;-77
2022/10/10 04:14:32;;;;;;;1.65;1.12;;;7.60;99.90;;;;;;4416020;32;20097;-76
2022/10/10 04:16:58;;;;;;;0.30;0.30;;;7.60;99.90;;;;;;4416619;32;20069;-77
2022/10/10 04:19:23;;;;;;;0.40;0.40;;;7.60;99.90;;;;;;4416939;32;20105;-77
2022/10/10 04:21:49;;;;;;;1.45;0.52;;;7.60;99.90;;;;;;4403280;32;20278;-75
2022/10/10 04:24:15;;;;;;;0.80;0.60;;;7.60;99.90;;;;;;4377161;32;20593;-75
2022/10/10 04:26:40;;;;;;;0.40;0.40;;;7.60;99.90;;;;;;4385309;32;20118;-75
2022/10/10 04:29:06;;;;;;;0.35;0.35;;;7.60;99.90;;;;;;4381438;32;20090;-74
2022/10/10 04:31:31;;;;;;;0.62;0.50;;;7.70;99.90;;;;;;4386001;32;20590;-75
2022/10/10 04:33:57;;;;;;;0.82;0.70;;;7.60;99.90;;;;;;4372861;32;20347;-74
2022/10/10 04:36:22;;;;;;;0.68;0.68;;;7.60;99.90;;;;;;4381770;32;20491;-74
2022/10/10 04:38:48;;;;;;;0.75;0.52;;;7.60;99.90;;;;;;4414509;32;20094;-75
2022/10/10 04:41:13;;;;;;;0.40;0.40;;;7.60;99.90;;;;;;4415140;32;20109;-75
2022/10/10 04:43:39;;;;;;;3.60;1.00;;;7.60;99.90;;;;;;4413272;32;20101;-77
2022/10/10 04:46:04;;;;;;;0.70;0.70;;;7.60;99.90;;;;;;4416260;32;20152;-74
2022/10/10 04:48:30;;;;;;;0.22;0.22;;;7.60;99.90;;;;;;4416916;32;20070;-75
2022/10/10 04:50:58;;;;;;;0.55;0.55;;;7.60;99.90;;;;;;4418610;32;20528;-76
2022/10/10 04:53:24;;;;;;;0.50;0.50;;;7.60;99.90;;;;;;4380217;32;20514;-74
2022/10/10 04:55:50;;;;;;;1.48;0.43;;;7.60;99.90;;;;;;4390143;32;20261;-76
2022/10/10 04:58:16;;;;;;;1.37;1.02;;;7.60;99.90;;;;;;4411448;32;20085;-76
2022/10/10 05:00:42;;;;;;;0.62;0.62;;;7.60;99.90;;;;;;4410678;32;20578;-76
2022/10/10 05:03:10;;;;;;;0.70;0.70;;;7.60;99.90;;;;;;4391659;32;20093;-77
2022/10/10 05:05:36;;;;;;;0.52;0.52;;;7.50;99.90;;;;;;4369662;32;20624;-75
2022/10/10 05:08:01;;;;;;;1.27;0.95;;;7.50;99.90;;;;;;4379705;32;20208;-75
2022/10/10 05:10:37;;;;;;;0.50;0.50;;;7.50;99.90;;;;;;4367736;32;20118;-75
2022/10/10 05:13:03;;;;;;;2.00;1.33;;;7.40;99.90;;;;;;4369647;32;20126;-75
2022/10/10 05:15:28;;;;;;;2.15;0.73;;;7.30;99.90;;;;;;4373425;32;20086;-75
2022/10/10 05:17:54;;;;;;;0.52;0.52;;;7.30;99.90;;;;;;4358760;32;20129;-75
2022/10/10 05:20:19;;;;;;;0.50;0.50;;;7.30;99.90;;;;;;4337493;32;20583;-75
2022/10/10 05:22:45;;;;;;;0.50;0.50;;;7.40;99.90;;;;;;4349477;32;20498;-75
2022/10/10 05:25:11;;;;;;;0.30;0.30;;;7.30;99.90;;;;;;4303419;32;20202;-75
2022/10/10 05:27:36;;;;;;;0.73;0.40;;;7.30;99.90;;;;;;4360577;32;20819;-75
2022/10/10 05:30:02;;;;;;;0.30;0.30;;;7.40;99.90;;;;;;4315135;32;20408;-75
2022/10/10 05:32:27;;;;;;;0.30;0.30;;;7.40;99.90;;;;;;4332751;32;20637;-75
2022/10/10 05:34:53;;;;;;;9.65;2.20;;;7.40;99.90;;;;;;4326361;32;20973;-75
2022/10/10 05:37:19;;;;;;;2.40;0.77;;;7.50;99.90;;;;;;4363933;32;20117;-74
2022/10/10 05:39:44;;;;;;;0.40;0.40;;;7.50;99.90;;;;;;4355304;32;20140;-74
2022/10/10 05:42:10;;;;;;;13.68;0.75;;;7.50;99.90;;;;;;4369477;32;20175;-75
2022/10/10 05:44:36;;;;;;;0.50;0.50;;;7.60;99.90;;;;;;4366866;32;21175;-75
2022/10/10 05:47:03;;;;;;;0.35;0.35;;;7.50;99.90;;;;;;4378916;32;20098;-75
2022/10/10 05:49:28;;;;;;;0.30;0.30;;;7.60;99.90;;;;;;4379256;32;20414;-76
2022/10/10 05:51:54;;;;;;;6.97;1.05;;;7.50;99.90;;;;;;4380123;32;20307;-76
2022/10/10 05:54:21;;;;;;;0.68;0.68;;;7.50;99.90;;;;;;4377820;32;20176;-76
2022/10/10 05:56:48;;;;;;;0.65;0.65;;;7.60;99.90;;;;;;4384319;32;20094;-75
2022/10/10 05:59:14;;;;;;;0.50;0.50;;;7.60;99.90;;;;;;4379712;32;21228;-75
2022/10/10 06:01:39;;;;;;;2.10;0.50;;;7.60;99.90;;;;;;4365471;32;20221;-75
2022/10/10 06:04:05;;;;;;;0.55;0.55;;;7.60;99.90;;;;;;4357604;32;20564;-75
2022/10/10 06:06:31;;;;;;;0.52;0.52;;;7.60;99.90;;;;;;4373111;32;20101;-75
2022/10/10 06:08:57;;;;;;;0.40;0.40;;;7.70;99.90;;;;;;4381596;32;20390;-76
2022/10/10 06:11:24;;;;;;;2.53;0.90;;;7.70;99.90;;;;;;4387978;32;20250;-76
2022/10/10 06:13:53;;;;;;;0.35;0.35;;;7.70;99.90;;;;;;4393364;32;20093;-75
2022/10/10 06:16:20;;;;;;;1.25;0.60;;;7.70;99.90;;;;;;4399866;32;20431;-76
2022/10/10 06:18:45;;;;;;;0.47;0.47;;;7.60;99.90;;;;;;4390404;32;20162;-75
2022/10/10 06:21:11;;;;;;;0.65;0.65;;;7.70;99.90;;;;;;4381267;32;20089;-75
2022/10/10 06:23:37;;;;;;;0.40;0.40;;;7.70;99.90;;;;;;4383007;32;20413;-75
2022/10/10 06:26:03;;;;;;;3.62;0.60;;;7.60;99.90;;;;;;4397086;32;20566;-76
2022/10/10 06:28:28;;;;;;;0.37;0.37;;;7.40;99.90;;;;;;4393009;32;20197;-75
2022/10/10 06:31:00;;;;;;;0.57;0.57;;;7.40;99.90;;;;;;4384642;32;20160;-74
2022/10/10 06:33:25;;;;;;;0.52;0.52;;;7.40;99.90;;;;;;4384862;32;20260;-76
2022/10/10 06:35:51;;;;;;;0.25;0.25;;;7.40;99.90;;;;;;4375071;32;20101;-75
2022/10/10 06:38:17;;;;;;;0.50;0.37;;;7.50;99.90;;;;;;4389269;32;20326;-75
2022/10/10 06:40:43;;;;;;;0.50;0.50;;;7.50;99.90;;;;;;4387229;32;20097;-75
2022/10/10 06:43:11;;;;;;;0.30;0.30;;;7.60;99.90;;;;;;4398382;32;20098;-77
2022/10/10 06:45:38;;;;;;;2.15;1.55;;;7.70;99.90;;;;;;4398046;32;20358;-77
2022/10/10 06:48:04;;;;;;;0.30;0.30;;;7.80;99.90;;;;;;4394104;32;20147;-75
2022/10/10 06:50:29;;;;;;;0.55;0.50;;;7.90;99.90;;;;;;4375627;32;20534;-75
2022/10/10 06:52:55;;;;;;;0.35;0.35;;;8.00;99.90;;;;;;4380890;32;20396;-75
2022/10/10 06:55:21;;;;;;;0.57;0.57;;;8.00;99.90;;;;;;4389737;32;20170;-76
2022/10/10 06:57:46;;;;;;;0.70;0.70;;;8.10;99.90;;;;;;4394956;32;20102;-76
2022/10/10 07:00:13;;;;;;;0.30;0.30;;;8.10;99.90;;;;;;4378954;32;20269;-75
2022/10/10 07:02:40;;;;;;;0.70;0.68;;;8.00;99.90;;;;;;4377722;32;20448;-75
2022/10/10 07:05:08;;;;;;;0.50;0.50;;;7.90;99.90;;;;;;4368411;32;20989;-75
2022/10/10 07:07:34;;;;;;;4.85;0.73;;;7.90;99.90;;;;;;4378831;32;20109;-75
2022/10/10 07:09:59;;;;;;;0.32;0.32;;;8.00;99.90;;;;;;4386849;32;20114;-75
2022/10/10 07:12:25;;;;;;;0.40;0.40;;;7.90;99.90;;;;;;4391744;32;20597;-75
2022/10/10 07:14:50;;;;;;;0.35;0.35;;;7.90;99.90;;;;;;4391065;32;20121;-75
2022/10/10 07:17:17;;;;;;;2.30;0.70;;;7.90;99.90;;;;;;4394308;32;20080;-75
2022/10/10 07:19:42;;;;;;;6.65;2.42;;;7.90;99.90;;;;;;4384400;32;20095;-77
2022/10/10 07:22:09;;;;;;;1.23;0.73;;;7.90;99.90;;;;;;4380501;32;20077;-78
2022/10/10 07:24:35;;;;;;;6.55;1.23;;;7.90;99.90;;;;;;4395551;32;20219;-78
2022/10/10 07:27:01;;;;;;;0.47;0.47;;;7.90;99.90;;;;;;4413333;32;20599;-78
2022/10/10 07:29:29;;;;;;;1.65;0.75;;;7.90;99.90;;;;;;4403137;32;20155;-79
2022/10/10 07:31:54;;;;;;;1.48;0.80;;;8.00;99.90;;;;;;4388241;32;20093;-78
2022/10/10 07:34:21;;;;;;;0.40;0.40;;;8.00;99.90;;;;;;4368529;32;20941;-77
2022/10/10 07:36:49;;;;;;;0.52;0.52;;;8.10;99.90;;;;;;4376356;32;20127;-77
2022/10/10 07:39:23;;;;;;;2.67;1.08;;;8.30;99.90;;;;;;4387265;32;20779;-76
2022/10/10 07:41:50;;;;;;;0.40;0.40;;;8.50;99.90;;;;;;4400435;32;20399;-76
2022/10/10 07:44:16;;;;;;;1.85;0.73;;;8.50;99.90;;;;;;4397795;32;20596;-77
2022/10/10 07:46:42;;;;;;;0.30;0.30;;;8.50;99.90;;;;;;4383577;32;20093;-76
2022/10/10 07:49:08;;;;;;;0.43;0.43;;;8.50;99.90;;;;;;4378898;32;20130;-77
2022/10/10 07:51:34;;;;;;;0.40;0.40;;;8.60;99.90;;;;;;4373059;32;20133;-77
2022/10/10 07:54:00;;;;;;;0.50;0.50;;;8.60;99.90;;;;;;4378966;32;20608;-77
2022/10/10 07:56:26;;;;;;;0.50;0.50;;;8.70;99.90;;;;;;4390770;32;20093;-77
2022/10/10 07:58:52;;;;;;;0.88;0.80;;;8.70;99.90;;;;;;4395097;32;20442;-78
2022/10/10 08:01:18;;;;;;;1.75;0.62;;;8.70;99.90;;;;;;4388004;32;20114;-78
2022/10/10 08:03:43;;;;;;;0.40;0.40;;;8.80;99.90;;;;;;4384349;32;21087;-79
2022/10/10 08:06:13;;;;;;;0.88;0.82;;;8.70;99.90;;;;;;4386371;32;20480;-76
2022/10/10 08:08:40;;;;;;;1.43;1.23;;;8.70;99.90;;;;;;4395122;32;20081;-78
2022/10/10 08:11:07;;;;;;;0.40;0.40;;;8.80;99.90;;;;;;4394553;32;20401;-77
2022/10/10 08:13:33;;;;;;;0.85;0.73;;;9.00;99.90;;;;;;4398571;32;20149;-77
2022/10/10 08:15:58;;;;;;;0.50;0.50;;;9.10;99.90;;;;;;4397167;32;20086;-76
2022/10/10 08:18:24;;;;;;;0.30;0.30;;;9.30;99.90;;;;;;4392561;32;20254;-74
2022/10/10 08:20:59;;;;;;;0.45;0.45;;;9.50;99.90;;;;;;4386381;32;20077;-73
2022/10/10 08:23:25;;;;;;;0.50;0.50;;;9.70;99.90;;;;;;4389251;32;20121;-74
2022/10/10 08:25:51;;;;;;;0.60;0.60;;;9.70;99.90;;;;;;4392599;32;20156;-74
2022/10/10 08:28:16;;;;;;;0.68;0.68;;;9.90;99.90;;;;;;4391028;32;20256;-74
2022/10/10 08:30:42;;;;;;;0.60;0.60;;;10.10;99.90;;;;;;4383956;32;20072;-74
2022/10/10 08:34:33;;;;;;;1.45;0.57;;;10.10;99.90;;;;;;4412122;32;101723;-66
2022/10/10 08:36:58;;;;;;;0.30;0.30;;;10.20;99.90;;;;;;4399669;32;20746;-65
2022/10/10 08:39:24;;;;;;;0.37;0.37;;;10.30;99.90;;;;;;4412533;32;20219;-66
2022/10/10 08:42:05;;;;;;;1.70;1.08;;;10.50;99.90;;;;;;4419316;32;20049;-64
2022/10/10 08:44:54;;;;;;;0.45;0.45;;;10.60;99.90;;;;;;4399596;32;20077;-65
2022/10/10 08:47:23;;;;;;;0.40;0.40;;;10.70;99.90;;;;;;4398156;32;20100;-66
2022/10/10 08:50:00;;;;;;;0.30;0.30;;;10.80;99.90;;;;;;4396339;32;20522;-64
2022/10/10 08:52:49;;;;;;;0.60;0.60;;;10.80;99.90;;;;;;4412636;32;20230;-65
2022/10/10 08:55:22;;;;;;;0.60;0.60;;;10.90;99.90;;;;;;4418777;32;20073;-64
2022/10/10 08:57:56;;;;;;;0.40;0.40;;;10.90;99.90;;;;;;4418943;32;20230;-64
2022/10/10 09:00:28;;;;;;;0.50;0.50;;;11.00;99.90;;;;;;4404148;32;20635;-63
2022/10/10 09:02:56;;;;;;;1.55;0.57;;;11.10;99.90;;;;;;4411773;32;20481;-64
2022/10/10 09:05:48;;;;;;;0.40;0.40;;;11.20;99.90;;;;;;4401872;32;20081;-64
2022/10/10 09:08:25;;;;;;;0.68;0.68;;;11.30;99.90;;;;;;4413125;32;20096;-64
2022/10/10 09:10:55;;;;;;;0.77;0.50;;;11.40;99.90;;;;;;4426879;32;20242;-64
2022/10/10 09:13:35;;;;;;;1.35;1.15;;;11.40;99.90;;;;;;4427103;32;20106;-64
2022/10/10 09:16:05;;;;;;;0.40;0.40;;;11.60;99.90;;;;;;4426451;32;20698;-64
2022/10/10 09:18:45;;;;;;;0.40;0.40;;;11.70;99.90;;;;;;4422803;32;20274;-66
2022/10/10 09:21:16;;;;;;;0.40;0.40;;;11.90;99.90;;;;;;4402927;32;20146;-69
2022/10/10 09:24:12;;;;;;;0.40;0.40;;;12.00;99.90;;;;;;4397353;32;20288;-68
2022/10/10 09:26:45;;;;;;;0.70;0.50;;;12.10;99.90;;;;;;4391364;32;20113;-68
2022/10/10 09:29:20;;;;;;;0.50;0.50;;;12.20;99.90;;;;;;4396590;32;20092;-67
2022/10/10 09:31:52;;;;;;;0.50;0.50;;;12.50;99.90;;;;;;4388353;32;20311;-67
2022/10/10 09:34:38;;;;;;;0.45;0.45;;;12.80;99.90;;;;;;4383314;32;20676;-65
2022/10/10 09:37:12;;;;;;;0.80;0.80;;;13.00;99.90;;;;;;4385814;32;20664;-66
2022/10/10 09:39:47;;;;;;;0.50;0.50;;;13.10;99.90;;;;;;4388158;32;20628;-66
2022/10/10 09:42:16;;;;;;;0.98;0.98;;;13.20;99.90;;;;;;4399789;32;20255;-66
2022/10/10 09:44:42;;;;;;;0.37;0.37;;;13.30;99.90;;;;;;4380575;32;20097;-65
2022/10/10 09:47:12;;;;;;;2.20;1.10;;;13.40;99.90;;;;;;4386138;32;21427;-65
2022/10/10 09:49:38;;;;;;;0.50;0.50;;;13.60;99.90;;;;;;4379392;32;20105;-66
2022/10/10 09:52:23;;;;;;;2.47;1.55;;;13.60;99.90;;;;;;4374700;32;20223;-65
2022/10/10 09:55:00;;;;;;;2.78;1.20;;;13.60;99.90;;;;;;4372864;32;20306;-63
2022/10/10 09:57:32;;;;;;;0.40;0.40;;;13.50;99.90;;;;;;4380914;32;20105;-65
2022/10/10 09:59:58;;;;;;;9.55;1.45;;;13.50;99.90;;;;;;4367579;32;20159;-64
2022/10/10 10:02:26;;;;;;;0.73;0.73;;;13.40;99.90;;;;;;4378928;32;20518;-65
2022/10/10 10:04:53;;;;;;;0.50;0.50;;;13.20;99.90;;;;;;4377900;32;20279;-65
2022/10/10 10:07:24;;;;;;;0.40;0.40;;;13.20;99.90;;;;;;4382014;32;20469;-66
2022/10/10 10:09:53;;;;;;;5.87;0.47;;;13.10;99.90;;;;;;4392298;32;20074;-65
2022/10/10 10:12:23;;;;;;;0.75;0.60;;;13.10;99.90;;;;;;4396701;32;20089;-67
2022/10/10 10:14:50;;;;;;;0.52;0.52;;;13.30;99.90;;;;;;4395976;32;20977;-66
2022/10/10 10:17:21;;;;;;;3.30;1.67;;;13.40;99.90;;;;;;4399902;32;20108;-66
2022/10/10 10:19:46;;;;;;;0.50;0.50;;;13.50;99.90;;;;;;4383291;32;20458;-66
2022/10/10 10:22:33;;;;;;;0.40;0.40;;;13.60;99.90;;;;;;4370992;32;20801;-63
2022/10/10 10:25:19;;;;;;;1.75;0.52;;;13.80;99.90;;;;;;4391409;32;20219;-64
2022/10/10 10:27:45;;;;;;;0.93;0.75;;;13.90;99.90;;;;;;4399213;32;20097;-65
2022/10/10 10:30:24;;;;;;;0.77;0.77;;;13.90;99.90;;;;;;4394703;32;20388;-65
2022/10/10 10:33:05;;;;;;;6.12;1.35;;;14.00;99.90;;;;;;4389653;32;20311;-65
2022/10/10 10:35:39;;;;;;;0.55;0.55;;;14.10;99.90;;;;;;4387042;32;20321;-66
2022/10/10 10:38:21;;;;;;;0.40;0.40;;;14.10;99.90;;;;;;4385677;32;20235;-65
2022/10/10 10:40:55;;;;;;;0.62;0.62;;;14.10;99.90;;;;;;4392659;32;20109;-65
2022/10/10 10:43:42;;;;;;;1.75;0.60;;;14.30;99.90;;;;;;4399597;32;20094;-65
2022/10/10 10:46:18;;;;;;;0.40;0.40;;;14.40;99.90;;;;;;4393450;32;21003;-66
2022/10/10 10:49:09;;;;;;;0.60;0.60;;;14.40;99.90;;;;;;4385528;32;20285;-67
2022/10/10 10:51:41;;;;;;;;;;;14.50;99.90;;;;;;4391684;32;20237;-66
2022/10/10 10:54:45;;;;;;;0.50;0.50;;;14.70;99.90;;;;;;4392464;32;21069;-66
2022/10/10 10:57:38;;;;;;;0.30;0.30;;;14.70;99.90;;;;;;4352685;32;20824;-66
2022/10/10 11:00:11;;;;;;;0.50;0.50;;;14.90;99.90;;;;;;4351794;32;20267;-65
2022/10/10 11:02:40;;;;;;;0.70;0.70;;;15.20;99.90;;;;;;4362461;32;20389;-65
2022/10/10 11:05:20;;;;;;;0.40;0.40;;;15.40;99.90;;;;;;4364526;32;20110;-66
2022/10/10 11:07:58;;;;;;;0.30;0.30;;;15.50;99.90;;;;;;4393182;32;20619;-66
2022/10/10 11:10:38;;;;;;;0.57;0.57;;;15.60;99.90;;;;;;4383987;32;20070;-66
2022/10/10 11:13:25;;;;;;;0.65;0.65;;;15.90;99.90;;;;;;4387048;32;20413;-65
2022/10/10 11:16:02;;;;;;;0.93;0.85;;;16.10;99.90;;;;;;4372627;32;20114;-65
2022/10/10 11:18:34;;;;;;;0.50;0.50;;;16.20;99.90;;;;;;4394387;32;20500;-65
2022/10/10 11:21:14;;;;;;;0.50;0.50;;;16.30;99.90;;;;;;4375194;32;20440;-65
2022/10/10 11:23:47;;;;;;;0.55;0.55;;;16.50;99.90;;;;;;4387289;32;20302;-64
2022/10/10 11:26:23;;;;;;;5.75;1.37;;;16.80;99.90;;;;;;4387922;32;21037;-67
2022/10/10 11:28:59;;;;;;;0.68;0.68;;;17.00;99.90;;;;;;4406080;32;20167;-68
2022/10/10 11:31:32;;;;;;;0.40;0.40;;;17.30;99.90;;;;;;4396207;32;20114;-66
2022/10/10 11:34:05;;;;;;;0.52;0.52;;;17.70;99.90;;;;;;4398491;32;20287;-67
2022/10/10 11:36:36;;;;;;;0.70;0.70;;;17.90;99.90;;;;;;4391945;32;20347;-65
2022/10/10 11:39:11;;;;;;;0.75;0.75;;;18.00;99.90;;;;;;4394417;32;20284;-66
2022/10/10 11:41:46;;;;;;;1.65;0.70;;;18.30;99.90;;;;;;4391747;32;20170;-66
2022/10/10 11:44:28;;;;;;;1.02;0.52;;;18.70;99.90;;;;;;4391905;32;20081;-67
2022/10/10 11:47:05;;;;;;;1.08;0.65;;;19.10;99.90;;;;;;4394332;32;20917;-68
2022/10/10 11:49:38;;;;;;;0.50;0.50;;;19.40;99.90;;;;;;4366835;32;20368;-66
2022/10/10 11:52:16;;;;;;;5.03;0.95;;;19.70;99.90;;;;;;4385603;32;20250;-68
2022/10/10 11:54:51;;;;;;;0.50;0.50;;;19.70;99.90;;;;;;4383702;32;21047;-66
2022/10/10 11:57:40;;;;;;;0.30;0.30;;;20.10;99.90;;;;;;4407301;32;20090;-67
2022/10/10 12:00:13;;;;;;;0.47;0.47;;;19.70;99.90;;;;;;4402480;32;20081;-68
2022/10/10 12:02:41;;;;;;;17.25;0.40;;;20.00;99.90;;;;;;4403055;32;20137;-69
2022/10/10 12:05:20;;;;;;;0.30;0.30;;;20.20;99.90;;;;;;4392602;32;20288;-67
2022/10/10 12:08:03;;;;;;;0.55;0.32;;;20.20;99.90;;;;;;4403633;32;20073;-69
2022/10/10 12:10:38;;;;;;;0.30;0.30;;;20.80;99.90;;;;;;4402675;32;20118;-67
2022/10/10 12:13:39;;;;;;;0.40;0.40;;;20.90;99.90;;;;;;4396384;32;20085;-67
2022/10/10 12:16:06;;;;;;;;;;;21.30;99.90;;;;;;4374221;32;20109;-67
2022/10/10 12:18:44;;;;;;;0.35;0.35;;;21.70;99.90;;;;;;4396462;32;19973;-67
2022/10/10 12:21:16;;;;;;;4.18;1.60;;;21.40;99.40;;;;;;4370678;32;20231;-68
2022/10/10 12:23:47;;;;;;;0.30;0.30;;;21.30;99.70;;;;;;4382980;32;20667;-67
2022/10/10 12:26:17;;;;;;;;;;;21.60;99.30;;;;;;4384777;32;20415;-66
2022/10/10 12:29:00;;;;;;;;;;;21.70;99.70;;;;;;4404530;32;20168;-68
2022/10/10 12:31:29;;;;;;;0.20;0.20;;;22.40;98.20;;;;;;4379431;32;20213;-67
2022/10/10 12:34:00;;;;;;;0.60;0.60;;;22.20;98.20;;;;;;4358181;32;20568;-68
2022/10/10 12:36:28;;;;;;;0.22;0.22;;;21.80;98.60;;;;;;4380101;32;20248;-68
2022/10/10 12:39:05;;;;;;;0.20;0.20;;;21.90;98.80;;;;;;4415368;32;20187;-68
2022/10/10 12:41:51;;;;;;;0.55;0.40;;;22.20;98.70;;;;;;4402494;32;20353;-69
2022/10/10 12:44:21;;;;;;;0.30;0.30;;;21.70;98.60;;;;;;4391907;32;20073;-70
2022/10/10 12:47:24;;;;;;;0.30;0.30;;;21.50;99.00;;;;;;4396825;32;20085;-69
2022/10/10 12:49:52;;;;;;;0.47;0.47;;;21.20;99.30;;;;;;4389782;32;20089;-70
2022/10/10 12:52:26;;;;;;;0.50;0.50;;;21.10;99.50;;;;;;4397626;32;20237;-69
2022/10/10 12:54:59;;;;;;;2.90;0.62;;;20.60;99.90;;;;;;4405522;32;20350;-69
2022/10/10 12:57:36;;;;;;;0.45;0.45;;;20.40;99.90;;;;;;4410413;32;20089;-69
2022/10/10 13:00:16;;;;;;;0.40;0.40;;;19.90;99.90;;;;;;4393883;32;20217;-68
2022/10/10 13:02:44;;;;;;;1.12;0.80;;;19.70;99.90;;;;;;4401740;32;20165;-69
2022/10/10 13:05:16;;;;;;;0.75;0.75;;;19.40;99.90;;;;;;4390041;32;20360;-69
2022/10/10 13:07:43;;;;;;;10.52;0.68;;;19.10;99.90;;;;;;4403835;32;20069;-69
2022/10/10 13:10:21;;;;;;;0.55;0.50;;;18.60;99.90;;;;;;4417265;32;20587;-70
2022/10/10 13:12:59;;;;;;;0.47;0.47;;;18.60;99.90;;;;;;4400612;32;20353;-69